Погода Казанлакна 2 недели

Кырджали, Болгария

12 - 25 апреля
  • 12апреля
    Сегодня
    +9°
    +24°
    Ясно и безоблачно
    ВремяПогодаТемператураВлажностьДавлениеВетер, м/сВероятность осадков
    00:00Ясно и безоблачно+11°C78 %735 мм1.8 м/с2 %
    03:00Ясно и безоблачно+10°C81 %735 мм1.8 м/с2 %
    06:00Ясно и безоблачно+9°C86 %734 мм1.9 м/с2 %
    09:00Ясно и безоблачно+15°C61 %736 мм1.4 м/с2 %
    12:00Ясно и безоблачно+21°C45 %736 мм4.0 м/с2 %
    15:00Ясно и безоблачно+23°C40 %736 мм4.2 м/с2 %
    18:00Ясно и безоблачно+22°C45 %735 мм3.7 м/с2 %
    21:00Ясно и безоблачно+15°C72 %734 мм1.0 м/с2 %
  • 13апреля
    Суббота
    +8°
    +24°
    Ясно и безоблачно
    ВремяПогодаТемператураВлажностьДавлениеВетер, м/сВероятность осадков
    00:00Ясно и безоблачно+11°C91 %734 мм1.2 м/с2 %
    03:00Ясно и безоблачно+10°C91 %733 мм0.9 м/с2 %
    06:00Небольшая облачность+10°C87 %733 мм1.6 м/с5 %
    09:00Небольшая облачность+15°C68 %734 мм0.6 м/с8 %
    12:00Практически безоблачно+22°C48 %734 мм3.0 м/с17 %
    15:00Ясно и безоблачно+23°C40 %733 мм4.6 м/с23 %
    18:00Практически безоблачно+22°C44 %733 мм4.7 м/с19 %
    21:00Облачно с прояснениями+15°C66 %733 мм1.6 м/с5 %
  • 14апреля
    Воскресенье
    +10°
    +26°
    Ясно и безоблачно
    ВремяПогодаТемператураВлажностьДавлениеВетер, м/сВероятность осадков
    00:00Ясно и безоблачно+12°C85 %733 мм1.1 м/с2 %
    03:00Ясно и безоблачно+10°C83 %732 мм1.5 м/с2 %
    06:00Ясно и безоблачно+8°C82 %732 мм1.6 м/с2 %
    09:00Практически безоблачно+16°C59 %733 мм1.2 м/с2 %
    12:00Ясно и безоблачно+22°C38 %734 мм2.5 м/с2 %
    15:00Ясно и безоблачно+25°C32 %733 мм2.6 м/с2 %
    18:00Ясно и безоблачно+25°C31 %732 мм2.3 м/с2 %
    21:00Ясно и безоблачно+18°C55 %731 мм0.9 м/с2 %
  • 15апреля
    Понедельник
    +10°
    +28°
    Облачно с прояснениями
    ВремяПогодаТемператураВлажностьДавлениеВетер, м/сВероятность осадков
    00:00Практически безоблачно+14°C70 %731 мм0.7 м/с2 %
    03:00Практически безоблачно+12°C66 %730 мм1.3 м/с2 %
    06:00Ясно и безоблачно+10°C69 %729 мм1.1 м/с2 %
    09:00Ясно и безоблачно+16°C54 %730 мм0.7 м/с2 %
    12:00Ясно и безоблачно+23°C36 %730 мм1.8 м/с2 %
    15:00Облачно с прояснениями+27°C27 %728 мм3.9 м/с2 %
    18:00Ясно и безоблачно+27°C27 %726 мм3.3 м/с2 %
    21:00Облачно с прояснениями+18°C61 %725 мм1.8 м/с2 %
  • 16апреля
    Вторник
    +12°
    +27°
    Облачно с прояснениями
    ВремяПогодаТемператураВлажностьДавлениеВетер, м/сВероятность осадков
    00:00Ясно и безоблачно+15°C69 %724 мм1.1 м/с2 %
    03:00Ясно и безоблачно+13°C79 %723 мм1.0 м/с2 %
    06:00Небольшая облачность+11°C71 %723 мм1.4 м/с2 %
    09:00Облачно с прояснениями+18°C44 %724 мм0.4 м/с2 %
    12:00Облачно с прояснениями+24°C27 %724 мм2.6 м/с2 %
    15:00Облачно с прояснениями+27°C26 %723 мм3.8 м/с3 %
    18:00Пасмурно, сплошная облачность+25°C40 %721 мм3.1 м/с7 %
    21:00Облачно с прояснениями+18°C65 %721 мм1.9 м/с9 %
Мы используем cookies
Соглашаюсь